sensor_id;sensor_type;location;lat;lon;timestamp;temperature;humidity
48752;DHT22;34544;48.836;9.174;2023-02-21T00:00:55;3.30;99.90
48752;DHT22;34544;48.836;9.174;2023-02-21T00:03:40;3.30;99.90
48752;DHT22;34544;48.836;9.174;2023-02-21T00:06:24;3.30;99.90
48752;DHT22;34544;48.836;9.174;2023-02-21T00:09:08;3.30;99.90
48752;DHT22;34544;48.836;9.174;2023-02-21T00:11:53;3.30;99.90
48752;DHT22;34544;48.836;9.174;2023-02-21T00:14:37;3.20;99.90
48752;DHT22;34544;48.836;9.174;2023-02-21T00:17:22;3.20;99.90
48752;DHT22;34544;48.836;9.174;2023-02-21T00:20:06;3.30;99.90
48752;DHT22;34544;48.836;9.174;2023-02-21T00:22:50;3.20;99.90
48752;DHT22;34544;48.836;9.174;2023-02-21T00:25:34;3.20;99.90
48752;DHT22;34544;48.836;9.174;2023-02-21T00:28:18;3.20;99.90
48752;DHT22;34544;48.836;9.174;2023-02-21T00:31:03;3.10;99.90
48752;DHT22;34544;48.836;9.174;2023-02-21T00:33:49;3.10;99.90
48752;DHT22;34544;48.836;9.174;2023-02-21T00:36:33;3.10;99.90
48752;DHT22;34544;48.836;9.174;2023-02-21T00:39:17;3.10;99.90
48752;DHT22;34544;48.836;9.174;2023-02-21T00:42:02;3.10;99.90
48752;DHT22;34544;48.836;9.174;2023-02-21T00:44:46;3.00;99.90
48752;DHT22;34544;48.836;9.174;2023-02-21T00:47:30;3.00;99.90
48752;DHT22;34544;48.836;9.174;2023-02-21T00:50:15;3.00;99.90
48752;DHT22;34544;48.836;9.174;2023-02-21T00:52:59;3.00;99.90
48752;DHT22;34544;48.836;9.174;2023-02-21T00:55:43;3.00;99.90
48752;DHT22;34544;48.836;9.174;2023-02-21T00:58:27;2.90;99.90
48752;DHT22;34544;48.836;9.174;2023-02-21T01:01:12;2.90;99.90
48752;DHT22;34544;48.836;9.174;2023-02-21T01:03:59;2.90;99.90
48752;DHT22;34544;48.836;9.174;2023-02-21T01:06:45;2.90;99.90
48752;DHT22;34544;48.836;9.174;2023-02-21T01:09:29;2.90;99.90
48752;DHT22;34544;48.836;9.174;2023-02-21T01:12:13;2.80;99.90
48752;DHT22;34544;48.836;9.174;2023-02-21T01:14:57;2.80;99.90
48752;DHT22;34544;48.836;9.174;2023-02-21T01:17:42;2.80;99.90
48752;DHT22;34544;48.836;9.174;2023-02-21T01:20:27;2.80;99.90
48752;DHT22;34544;48.836;9.174;2023-02-21T01:23:11;2.70;99.90
48752;DHT22;34544;48.836;9.174;2023-02-21T01:25:55;2.80;99.90
48752;DHT22;34544;48.836;9.174;2023-02-21T01:28:39;2.80;99.90
48752;DHT22;34544;48.836;9.174;2023-02-21T01:31:23;2.70;99.90
48752;DHT22;34544;48.836;9.174;2023-02-21T01:34:08;2.70;99.90
48752;DHT22;34544;48.836;9.174;2023-02-21T01:36:52;2.70;99.90
48752;DHT22;34544;48.836;9.174;2023-02-21T01:39:37;2.70;99.90
48752;DHT22;34544;48.836;9.174;2023-02-21T01:42:22;2.70;99.90
48752;DHT22;34544;48.836;9.174;2023-02-21T01:48:12;2.70;99.90
48752;DHT22;34544;48.836;9.174;2023-02-21T01:50:57;2.70;99.90
48752;DHT22;34544;48.836;9.174;2023-02-21T01:53:43;2.60;99.90
48752;DHT22;34544;48.836;9.174;2023-02-21T01:56:29;2.70;99.90
48752;DHT22;34544;48.836;9.174;2023-02-21T01:59:13;2.60;99.90
48752;DHT22;34544;48.836;9.174;2023-02-21T02:02:03;2.60;99.90
48752;DHT22;34544;48.836;9.174;2023-02-21T02:04:49;2.60;99.90
48752;DHT22;34544;48.836;9.174;2023-02-21T02:07:35;2.60;99.90
48752;DHT22;34544;48.836;9.174;2023-02-21T02:10:20;2.60;99.90
48752;DHT22;34544;48.836;9.174;2023-02-21T02:13:12;2.60;99.90
48752;DHT22;34544;48.836;9.174;2023-02-21T02:18:37;2.50;99.90
48752;DHT22;34544;48.836;9.174;2023-02-21T02:26:43;2.50;99.90
48752;DHT22;34544;48.836;9.174;2023-02-21T02:38:00;2.40;99.90
48752;DHT22;34544;48.836;9.174;2023-02-21T02:40:35;2.40;99.90
48752;DHT22;34544;48.836;9.174;2023-02-21T02:46:04;2.40;99.90
48752;DHT22;34544;48.836;9.174;2023-02-21T02:48:34;2.30;99.90
48752;DHT22;34544;48.836;9.174;2023-02-21T02:51:10;2.30;99.90
48752;DHT22;34544;48.836;9.174;2023-02-21T02:53:37;2.30;99.90
48752;DHT22;34544;48.836;9.174;2023-02-21T02:56:07;2.40;99.90
48752;DHT22;34544;48.836;9.174;2023-02-21T02:58:41;2.30;99.90
48752;DHT22;34544;48.836;9.174;2023-02-21T03:01:31;2.40;99.90
48752;DHT22;34544;48.836;9.174;2023-02-21T03:04:18;2.30;99.90
48752;DHT22;34544;48.836;9.174;2023-02-21T03:12:31;2.20;99.90
48752;DHT22;34544;48.836;9.174;2023-02-21T03:17:39;2.20;99.90
48752;DHT22;34544;48.836;9.174;2023-02-21T03:20:08;2.20;99.90
48752;DHT22;34544;48.836;9.174;2023-02-21T03:22:35;2.10;99.90
48752;DHT22;34544;48.836;9.174;2023-02-21T03:25:02;2.10;99.90
48752;DHT22;34544;48.836;9.174;2023-02-21T03:27:30;2.10;99.90
48752;DHT22;34544;48.836;9.174;2023-02-21T03:30:03;2.20;99.90
48752;DHT22;34544;48.836;9.174;2023-02-21T03:32:43;2.10;99.90
48752;DHT22;34544;48.836;9.174;2023-02-21T03:35:09;2.00;99.90
48752;DHT22;34544;48.836;9.174;2023-02-21T03:37:48;2.00;99.90
48752;DHT22;34544;48.836;9.174;2023-02-21T03:40:19;2.00;99.90
48752;DHT22;34544;48.836;9.174;2023-02-21T03:42:53;1.90;99.90
48752;DHT22;34544;48.836;9.174;2023-02-21T03:45:19;1.90;99.90
48752;DHT22;34544;48.836;9.174;2023-02-21T03:47:59;1.90;99.90
48752;DHT22;34544;48.836;9.174;2023-02-21T03:50:25;1.90;99.90
48752;DHT22;34544;48.836;9.174;2023-02-21T03:52:50;1.90;99.90
48752;DHT22;34544;48.836;9.174;2023-02-21T03:55:16;2.00;99.90
48752;DHT22;34544;48.836;9.174;2023-02-21T03:57:42;1.80;99.90
48752;DHT22;34544;48.836;9.174;2023-02-21T04:00:09;1.80;99.90
48752;DHT22;34544;48.836;9.174;2023-02-21T04:02:40;1.80;99.90
48752;DHT22;34544;48.836;9.174;2023-02-21T04:05:07;1.80;99.90
48752;DHT22;34544;48.836;9.174;2023-02-21T04:07:32;1.80;99.90
48752;DHT22;34544;48.836;9.174;2023-02-21T04:09:58;1.70;99.90
48752;DHT22;34544;48.836;9.174;2023-02-21T04:12:34;1.70;99.90
48752;DHT22;34544;48.836;9.174;2023-02-21T04:15:00;1.70;99.90
48752;DHT22;34544;48.836;9.174;2023-02-21T04:17:25;1.70;99.90
48752;DHT22;34544;48.836;9.174;2023-02-21T04:19:53;1.70;99.90
48752;DHT22;34544;48.836;9.174;2023-02-21T04:22:18;1.70;99.90
48752;DHT22;34544;48.836;9.174;2023-02-21T04:24:44;1.60;99.90
48752;DHT22;34544;48.836;9.174;2023-02-21T04:27:13;1.60;99.90
48752;DHT22;34544;48.836;9.174;2023-02-21T04:29:46;1.60;99.90
48752;DHT22;34544;48.836;9.174;2023-02-21T04:32:12;1.60;99.90
48752;DHT22;34544;48.836;9.174;2023-02-21T04:34:38;1.60;99.90
48752;DHT22;34544;48.836;9.174;2023-02-21T04:37:04;1.60;99.90
48752;DHT22;34544;48.836;9.174;2023-02-21T04:39:31;1.60;99.90
48752;DHT22;34544;48.836;9.174;2023-02-21T04:41:57;1.60;99.90
48752;DHT22;34544;48.836;9.174;2023-02-21T04:44:22;1.60;99.90
48752;DHT22;34544;48.836;9.174;2023-02-21T04:46:48;1.60;99.90
48752;DHT22;34544;48.836;9.174;2023-02-21T04:49:14;1.60;99.90
48752;DHT22;34544;48.836;9.174;2023-02-21T04:51:40;1.60;99.90
48752;DHT22;34544;48.836;9.174;2023-02-21T04:54:06;1.60;99.90
48752;DHT22;34544;48.836;9.174;2023-02-21T04:56:32;1.60;99.90
48752;DHT22;34544;48.836;9.174;2023-02-21T04:58:57;1.60;99.90
48752;DHT22;34544;48.836;9.174;2023-02-21T05:01:27;1.60;99.90
48752;DHT22;34544;48.836;9.174;2023-02-21T05:03:53;1.60;99.90
48752;DHT22;34544;48.836;9.174;2023-02-21T05:06:21;1.60;99.90
48752;DHT22;34544;48.836;9.174;2023-02-21T05:08:46;1.60;99.90
48752;DHT22;34544;48.836;9.174;2023-02-21T05:11:12;1.60;99.90
48752;DHT22;34544;48.836;9.174;2023-02-21T05:13:38;1.60;99.90
48752;DHT22;34544;48.836;9.174;2023-02-21T05:16:04;1.60;99.90
48752;DHT22;34544;48.836;9.174;2023-02-21T05:18:30;1.60;99.90
48752;DHT22;34544;48.836;9.174;2023-02-21T05:20:56;1.60;99.90
48752;DHT22;34544;48.836;9.174;2023-02-21T05:23:22;1.60;99.90
48752;DHT22;34544;48.836;9.174;2023-02-21T05:25:59;1.60;99.90
48752;DHT22;34544;48.836;9.174;2023-02-21T05:28:25;1.60;99.90
48752;DHT22;34544;48.836;9.174;2023-02-21T05:30:51;1.60;99.90
48752;DHT22;34544;48.836;9.174;2023-02-21T05:33:16;1.60;99.90
48752;DHT22;34544;48.836;9.174;2023-02-21T05:35:42;1.60;99.90
48752;DHT22;34544;48.836;9.174;2023-02-21T05:38:11;1.60;99.90
48752;DHT22;34544;48.836;9.174;2023-02-21T05:40:36;1.60;99.90
48752;DHT22;34544;48.836;9.174;2023-02-21T05:43:02;1.70;99.90
48752;DHT22;34544;48.836;9.174;2023-02-21T05:45:28;1.60;99.90
48752;DHT22;34544;48.836;9.174;2023-02-21T05:47:53;1.60;99.90
48752;DHT22;34544;48.836;9.174;2023-02-21T05:50:24;1.70;99.90
48752;DHT22;34544;48.836;9.174;2023-02-21T05:52:50;1.60;99.90
48752;DHT22;34544;48.836;9.174;2023-02-21T05:55:16;1.60;99.90
48752;DHT22;34544;48.836;9.174;2023-02-21T05:57:42;1.60;99.90
48752;DHT22;34544;48.836;9.174;2023-02-21T06:00:16;1.60;99.90
48752;DHT22;34544;48.836;9.174;2023-02-21T06:02:42;1.60;99.90
48752;DHT22;34544;48.836;9.174;2023-02-21T06:05:08;1.60;99.90
48752;DHT22;34544;48.836;9.174;2023-02-21T06:07:33;1.60;99.90
48752;DHT22;34544;48.836;9.174;2023-02-21T06:09:59;1.60;99.90
48752;DHT22;34544;48.836;9.174;2023-02-21T06:12:24;1.60;99.90
48752;DHT22;34544;48.836;9.174;2023-02-21T06:14:50;1.60;99.90
48752;DHT22;34544;48.836;9.174;2023-02-21T06:17:16;1.60;99.90
48752;DHT22;34544;48.836;9.174;2023-02-21T06:19:41;1.50;99.90
48752;DHT22;34544;48.836;9.174;2023-02-21T06:22:07;1.50;99.90
48752;DHT22;34544;48.836;9.174;2023-02-21T06:24:32;1.50;99.90
48752;DHT22;34544;48.836;9.174;2023-02-21T06:26:58;1.50;99.90
48752;DHT22;34544;48.836;9.174;2023-02-21T06:29:24;1.50;99.90
48752;DHT22;34544;48.836;9.174;2023-02-21T06:31:50;1.60;99.90
48752;DHT22;34544;48.836;9.174;2023-02-21T06:34:20;1.60;99.90
48752;DHT22;34544;48.836;9.174;2023-02-21T06:36:45;1.60;99.90
48752;DHT22;34544;48.836;9.174;2023-02-21T06:39:15;1.70;99.90
48752;DHT22;34544;48.836;9.174;2023-02-21T06:41:41;1.70;99.90
48752;DHT22;34544;48.836;9.174;2023-02-21T06:44:06;1.70;99.90
48752;DHT22;34544;48.836;9.174;2023-02-21T06:46:32;1.70;99.90
48752;DHT22;34544;48.836;9.174;2023-02-21T06:49:00;1.80;99.90
48752;DHT22;34544;48.836;9.174;2023-02-21T06:51:26;1.80;99.90
48752;DHT22;34544;48.836;9.174;2023-02-21T06:53:54;1.80;99.90
48752;DHT22;34544;48.836;9.174;2023-02-21T06:56:20;1.80;99.90
48752;DHT22;34544;48.836;9.174;2023-02-21T06:58:46;1.90;99.90
48752;DHT22;34544;48.836;9.174;2023-02-21T07:01:12;1.90;99.90
48752;DHT22;34544;48.836;9.174;2023-02-21T07:03:40;1.90;99.90
48752;DHT22;34544;48.836;9.174;2023-02-21T07:06:07;2.00;99.90
48752;DHT22;34544;48.836;9.174;2023-02-21T07:08:33;2.10;99.90
48752;DHT22;34544;48.836;9.174;2023-02-21T07:10:59;2.30;99.90
48752;DHT22;34544;48.836;9.174;2023-02-21T07:13:24;2.40;99.90
48752;DHT22;34544;48.836;9.174;2023-02-21T07:15:50;2.70;99.90
48752;DHT22;34544;48.836;9.174;2023-02-21T07:18:15;3.00;99.90
48752;DHT22;34544;48.836;9.174;2023-02-21T07:20:41;3.30;99.90
48752;DHT22;34544;48.836;9.174;2023-02-21T07:23:07;3.70;99.90
48752;DHT22;34544;48.836;9.174;2023-02-21T07:25:32;4.00;99.90
48752;DHT22;34544;48.836;9.174;2023-02-21T07:27:58;4.30;99.90
48752;DHT22;34544;48.836;9.174;2023-02-21T07:30:23;4.70;99.90
48752;DHT22;34544;48.836;9.174;2023-02-21T07:32:49;5.00;99.90
48752;DHT22;34544;48.836;9.174;2023-02-21T07:35:15;5.30;99.90
48752;DHT22;34544;48.836;9.174;2023-02-21T07:37:40;5.70;99.90
48752;DHT22;34544;48.836;9.174;2023-02-21T07:40:06;6.00;99.90
48752;DHT22;34544;48.836;9.174;2023-02-21T07:42:32;6.30;99.90
48752;DHT22;34544;48.836;9.174;2023-02-21T07:44:58;6.70;99.90
48752;DHT22;34544;48.836;9.174;2023-02-21T07:47:25;7.00;99.90
48752;DHT22;34544;48.836;9.174;2023-02-21T07:49:51;7.30;99.90
48752;DHT22;34544;48.836;9.174;2023-02-21T07:52:19;7.70;99.90
48752;DHT22;34544;48.836;9.174;2023-02-21T07:54:44;7.90;99.90
48752;DHT22;34544;48.836;9.174;2023-02-21T07:57:10;8.20;99.90
48752;DHT22;34544;48.836;9.174;2023-02-21T07:59:36;8.50;99.90
48752;DHT22;34544;48.836;9.174;2023-02-21T08:02:02;8.60;99.90
48752;DHT22;34544;48.836;9.174;2023-02-21T08:04:27;8.80;99.90
48752;DHT22;34544;48.836;9.174;2023-02-21T08:07:01;9.00;99.90
48752;DHT22;34544;48.836;9.174;2023-02-21T08:09:27;9.20;99.90
48752;DHT22;34544;48.836;9.174;2023-02-21T08:11:53;9.60;99.90
48752;DHT22;34544;48.836;9.174;2023-02-21T08:14:18;9.80;99.90
48752;DHT22;34544;48.836;9.174;2023-02-21T08:16:44;10.10;99.90
48752;DHT22;34544;48.836;9.174;2023-02-21T08:19:10;10.40;99.90
48752;DHT22;34544;48.836;9.174;2023-02-21T08:24:01;10.80;99.90
48752;DHT22;34544;48.836;9.174;2023-02-21T08:26:28;11.10;99.90
48752;DHT22;34544;48.836;9.174;2023-02-21T08:28:53;11.30;99.90
48752;DHT22;34544;48.836;9.174;2023-02-21T08:31:20;11.50;99.90
48752;DHT22;34544;48.836;9.174;2023-02-21T08:33:45;11.80;99.90
48752;DHT22;34544;48.836;9.174;2023-02-21T08:36:11;12.00;99.90
48752;DHT22;34544;48.836;9.174;2023-02-21T08:38:37;12.30;99.90
48752;DHT22;34544;48.836;9.174;2023-02-21T08:41:04;12.50;99.90
48752;DHT22;34544;48.836;9.174;2023-02-21T08:43:31;12.70;99.90
48752;DHT22;34544;48.836;9.174;2023-02-21T08:45:57;12.80;99.90
48752;DHT22;34544;48.836;9.174;2023-02-21T08:48:23;13.10;99.90
48752;DHT22;34544;48.836;9.174;2023-02-21T08:50:48;13.30;99.90
48752;DHT22;34544;48.836;9.174;2023-02-21T08:53:14;13.50;99.90
48752;DHT22;34544;48.836;9.174;2023-02-21T08:55:40;13.70;99.90
48752;DHT22;34544;48.836;9.174;2023-02-21T08:58:10;13.80;99.90
48752;DHT22;34544;48.836;9.174;2023-02-21T09:00:36;13.80;99.90
48752;DHT22;34544;48.836;9.174;2023-02-21T09:03:01;14.00;99.90
48752;DHT22;34544;48.836;9.174;2023-02-21T09:05:29;14.10;99.90
48752;DHT22;34544;48.836;9.174;2023-02-21T09:07:56;14.50;99.90
48752;DHT22;34544;48.836;9.174;2023-02-21T09:10:30;14.80;99.90
48752;DHT22;34544;48.836;9.174;2023-02-21T09:12:58;15.00;99.90
48752;DHT22;34544;48.836;9.174;2023-02-21T09:15:24;15.20;99.90
48752;DHT22;34544;48.836;9.174;2023-02-21T09:17:50;15.40;99.90
48752;DHT22;34544;48.836;9.174;2023-02-21T09:20:19;15.90;99.90
48752;DHT22;34544;48.836;9.174;2023-02-21T09:22:45;16.10;99.90
48752;DHT22;34544;48.836;9.174;2023-02-21T09:25:12;16.40;99.90
48752;DHT22;34544;48.836;9.174;2023-02-21T09:27:39;16.70;99.40
48752;DHT22;34544;48.836;9.174;2023-02-21T09:30:11;17.10;98.90
48752;DHT22;34544;48.836;9.174;2023-02-21T09:32:38;17.40;97.90
48752;DHT22;34544;48.836;9.174;2023-02-21T09:35:05;17.50;97.10
48752;DHT22;34544;48.836;9.174;2023-02-21T09:37:31;17.60;97.40
48752;DHT22;34544;48.836;9.174;2023-02-21T09:44:51;18.50;95.20
48752;DHT22;34544;48.836;9.174;2023-02-21T09:47:29;18.80;96.00
48752;DHT22;34544;48.836;9.174;2023-02-21T09:50:06;19.20;95.40
48752;DHT22;34544;48.836;9.174;2023-02-21T09:52:37;19.50;95.00
48752;DHT22;34544;48.836;9.174;2023-02-21T09:55:29;19.70;94.30
48752;DHT22;34544;48.836;9.174;2023-02-21T09:57:56;20.10;93.40
48752;DHT22;34544;48.836;9.174;2023-02-21T10:00:26;20.50;92.80
48752;DHT22;34544;48.836;9.174;2023-02-21T10:03:38;20.80;92.20
48752;DHT22;34544;48.836;9.174;2023-02-21T10:06:03;20.80;91.80
48752;DHT22;34544;48.836;9.174;2023-02-21T10:11:56;21.40;90.50
48752;DHT22;34544;48.836;9.174;2023-02-21T10:14:42;21.60;90.20
48752;DHT22;34544;48.836;9.174;2023-02-21T10:17:21;21.80;89.20
48752;DHT22;34544;48.836;9.174;2023-02-21T10:19:52;22.40;87.60
48752;DHT22;34544;48.836;9.174;2023-02-21T10:22:21;21.80;88.40
48752;DHT22;34544;48.836;9.174;2023-02-21T10:24:48;21.80;89.20
48752;DHT22;34544;48.836;9.174;2023-02-21T10:27:20;22.20;88.00
48752;DHT22;34544;48.836;9.174;2023-02-21T10:29:50;22.80;87.00
48752;DHT22;34544;48.836;9.174;2023-02-21T10:32:17;23.10;85.20
48752;DHT22;34544;48.836;9.174;2023-02-21T10:34:44;23.20;84.30
48752;DHT22;34544;48.836;9.174;2023-02-21T10:37:43;23.10;83.90
48752;DHT22;34544;48.836;9.174;2023-02-21T10:42:53;23.40;83.30
48752;DHT22;34544;48.836;9.174;2023-02-21T10:45:23;23.40;82.80
48752;DHT22;34544;48.836;9.174;2023-02-21T10:47:59;23.70;82.90
48752;DHT22;34544;48.836;9.174;2023-02-21T10:53:43;24.40;82.50
48752;DHT22;34544;48.836;9.174;2023-02-21T10:58:56;24.80;79.60
48752;DHT22;34544;48.836;9.174;2023-02-21T11:03:52;25.10;77.70
48752;DHT22;34544;48.836;9.174;2023-02-21T11:08:57;25.30;77.90
48752;DHT22;34544;48.836;9.174;2023-02-21T11:16:43;26.20;76.60
48752;DHT22;34544;48.836;9.174;2023-02-21T11:19:12;26.30;76.60
48752;DHT22;34544;48.836;9.174;2023-02-21T11:21:40;26.30;75.30
48752;DHT22;34544;48.836;9.174;2023-02-21T11:24:07;26.10;75.90
48752;DHT22;34544;48.836;9.174;2023-02-21T11:26:47;26.00;76.60
48752;DHT22;34544;48.836;9.174;2023-02-21T11:29:19;25.80;74.80
48752;DHT22;34544;48.836;9.174;2023-02-21T11:31:46;25.80;75.40
48752;DHT22;34544;48.836;9.174;2023-02-21T11:34:13;25.80;76.10
48752;DHT22;34544;48.836;9.174;2023-02-21T11:36:41;26.10;75.50
48752;DHT22;34544;48.836;9.174;2023-02-21T11:39:18;26.60;75.00
48752;DHT22;34544;48.836;9.174;2023-02-21T11:44:38;26.80;72.10
48752;DHT22;34544;48.836;9.174;2023-02-21T11:47:24;26.80;73.80
48752;DHT22;34544;48.836;9.174;2023-02-21T11:50:10;26.70;73.00
48752;DHT22;34544;48.836;9.174;2023-02-21T11:52:38;27.00;73.50
48752;DHT22;34544;48.836;9.174;2023-02-21T12:06:50;27.90;69.50
48752;DHT22;34544;48.836;9.174;2023-02-21T12:12:49;27.10;72.50
48752;DHT22;34544;48.836;9.174;2023-02-21T12:15:19;27.30;70.20
48752;DHT22;34544;48.836;9.174;2023-02-21T12:26:26;27.40;70.50
48752;DHT22;34544;48.836;9.174;2023-02-21T12:39:48;29.00;67.80
48752;DHT22;34544;48.836;9.174;2023-02-21T12:46:24;29.00;68.70
48752;DHT22;34544;48.836;9.174;2023-02-21T12:53:30;29.60;66.10
48752;DHT22;34544;48.836;9.174;2023-02-21T12:56:05;29.60;67.40
48752;DHT22;34544;48.836;9.174;2023-02-21T12:58:41;29.70;67.10
48752;DHT22;34544;48.836;9.174;2023-02-21T13:01:14;30.00;67.10
48752;DHT22;34544;48.836;9.174;2023-02-21T13:10:06;29.60;66.10
48752;DHT22;34544;48.836;9.174;2023-02-21T13:15:18;30.30;65.70
48752;DHT22;34544;48.836;9.174;2023-02-21T13:20:25;30.60;65.40
48752;DHT22;34544;48.836;9.174;2023-02-21T13:29:28;30.00;64.00
48752;DHT22;34544;48.836;9.174;2023-02-21T13:32:12;29.80;63.60
48752;DHT22;34544;48.836;9.174;2023-02-21T13:34:42;29.60;64.30
48752;DHT22;34544;48.836;9.174;2023-02-21T13:37:18;29.70;64.70
48752;DHT22;34544;48.836;9.174;2023-02-21T13:39:49;29.70;63.70
48752;DHT22;34544;48.836;9.174;2023-02-21T13:42:19;29.50;63.40
48752;DHT22;34544;48.836;9.174;2023-02-21T13:44:48;29.40;64.00
48752;DHT22;34544;48.836;9.174;2023-02-21T13:47:19;29.40;63.70
48752;DHT22;34544;48.836;9.174;2023-02-21T13:49:56;29.50;64.00
48752;DHT22;34544;48.836;9.174;2023-02-21T14:05:27;28.80;63.80
48752;DHT22;34544;48.836;9.174;2023-02-21T14:08:13;28.90;64.20
48752;DHT22;34544;48.836;9.174;2023-02-21T14:10:46;29.00;63.50
48752;DHT22;34544;48.836;9.174;2023-02-21T14:16:07;29.00;64.10
48752;DHT22;34544;48.836;9.174;2023-02-21T14:21:42;29.50;64.40
48752;DHT22;34544;48.836;9.174;2023-02-21T15:01:50;29.20;63.30
48752;DHT22;34544;48.836;9.174;2023-02-21T15:07:17;28.70;64.10
48752;DHT22;34544;48.836;9.174;2023-02-21T15:10:06;28.50;63.70
48752;DHT22;34544;48.836;9.174;2023-02-21T15:12:39;27.90;64.60
48752;DHT22;34544;48.836;9.174;2023-02-21T15:15:14;26.90;65.70
48752;DHT22;34544;48.836;9.174;2023-02-21T15:20:16;24.50;68.00
48752;DHT22;34544;48.836;9.174;2023-02-21T15:22:42;23.20;70.90
48752;DHT22;34544;48.836;9.174;2023-02-21T15:27:35;21.60;79.90
48752;DHT22;34544;48.836;9.174;2023-02-21T15:30:12;20.80;75.50
48752;DHT22;34544;48.836;9.174;2023-02-21T15:32:38;20.20;76.60
48752;DHT22;34544;48.836;9.174;2023-02-21T15:35:06;19.80;78.80
48752;DHT22;34544;48.836;9.174;2023-02-21T15:37:37;19.20;79.20
48752;DHT22;34544;48.836;9.174;2023-02-21T15:40:12;18.90;79.90
48752;DHT22;34544;48.836;9.174;2023-02-21T15:42:40;18.60;81.10
48752;DHT22;34544;48.836;9.174;2023-02-21T15:48:05;18.00;82.30
48752;DHT22;34544;48.836;9.174;2023-02-21T15:50:37;17.60;83.20
48752;DHT22;34544;48.836;9.174;2023-02-21T15:53:32;17.40;84.10
48752;DHT22;34544;48.836;9.174;2023-02-21T15:56:23;17.10;85.00
48752;DHT22;34544;48.836;9.174;2023-02-21T15:59:24;16.80;85.50
48752;DHT22;34544;48.836;9.174;2023-02-21T16:02:13;16.60;86.80
48752;DHT22;34544;48.836;9.174;2023-02-21T16:04:44;16.40;88.60
48752;DHT22;34544;48.836;9.174;2023-02-21T16:07:20;16.30;88.80
48752;DHT22;34544;48.836;9.174;2023-02-21T16:09:49;16.10;89.10
48752;DHT22;34544;48.836;9.174;2023-02-21T16:12:28;15.90;89.80
48752;DHT22;34544;48.836;9.174;2023-02-21T16:15:07;15.80;90.60
48752;DHT22;34544;48.836;9.174;2023-02-21T16:17:38;15.70;90.30
48752;DHT22;34544;48.836;9.174;2023-02-21T16:22:50;15.40;90.80
48752;DHT22;34544;48.836;9.174;2023-02-21T16:25:22;15.30;91.50
48752;DHT22;34544;48.836;9.174;2023-02-21T16:27:54;15.10;91.50
48752;DHT22;34544;48.836;9.174;2023-02-21T16:30:30;15.00;92.00
48752;DHT22;34544;48.836;9.174;2023-02-21T16:33:01;15.00;99.90
48752;DHT22;34544;48.836;9.174;2023-02-21T16:35:28;14.90;97.30
48752;DHT22;34544;48.836;9.174;2023-02-21T16:37:57;15.50;94.80
48752;DHT22;34544;48.836;9.174;2023-02-21T16:40:30;14.50;93.40
48752;DHT22;34544;48.836;9.174;2023-02-21T16:42:58;14.40;93.90
48752;DHT22;34544;48.836;9.174;2023-02-21T16:45:26;14.20;94.70
48752;DHT22;34544;48.836;9.174;2023-02-21T16:48:02;14.10;95.00
48752;DHT22;34544;48.836;9.174;2023-02-21T16:50:36;14.00;97.70
48752;DHT22;34544;48.836;9.174;2023-02-21T16:53:03;13.80;96.60
48752;DHT22;34544;48.836;9.174;2023-02-21T16:55:29;13.60;97.60
48752;DHT22;34544;48.836;9.174;2023-02-21T16:58:03;13.40;97.70
48752;DHT22;34544;48.836;9.174;2023-02-21T17:00:30;13.20;99.10
48752;DHT22;34544;48.836;9.174;2023-02-21T17:02:56;13.20;99.90
48752;DHT22;34544;48.836;9.174;2023-02-21T17:05:22;13.00;99.90
48752;DHT22;34544;48.836;9.174;2023-02-21T17:07:50;12.80;99.90
48752;DHT22;34544;48.836;9.174;2023-02-21T17:10:18;12.50;99.90
48752;DHT22;34544;48.836;9.174;2023-02-21T17:12:43;12.40;99.90
48752;DHT22;34544;48.836;9.174;2023-02-21T17:15:09;12.10;99.90
48752;DHT22;34544;48.836;9.174;2023-02-21T17:17:36;12.00;99.90
48752;DHT22;34544;48.836;9.174;2023-02-21T17:20:02;12.10;99.90
48752;DHT22;34544;48.836;9.174;2023-02-21T17:22:28;11.80;99.90
48752;DHT22;34544;48.836;9.174;2023-02-21T17:24:54;11.70;99.90
48752;DHT22;34544;48.836;9.174;2023-02-21T17:27:20;11.50;99.90
48752;DHT22;34544;48.836;9.174;2023-02-21T17:29:47;11.50;99.90
48752;DHT22;34544;48.836;9.174;2023-02-21T17:32:13;11.30;99.90
48752;DHT22;34544;48.836;9.174;2023-02-21T17:34:39;11.20;99.90
48752;DHT22;34544;48.836;9.174;2023-02-21T17:37:04;11.00;99.90
48752;DHT22;34544;48.836;9.174;2023-02-21T17:39:30;10.90;99.90
48752;DHT22;34544;48.836;9.174;2023-02-21T17:41:56;10.90;99.90
48752;DHT22;34544;48.836;9.174;2023-02-21T17:44:22;10.70;99.90
48752;DHT22;34544;48.836;9.174;2023-02-21T17:46:50;10.60;99.90
48752;DHT22;34544;48.836;9.174;2023-02-21T17:49:19;10.50;99.90
48752;DHT22;34544;48.836;9.174;2023-02-21T17:54:16;10.20;99.90
48752;DHT22;34544;48.836;9.174;2023-02-21T17:56:42;10.10;99.90
48752;DHT22;34544;48.836;9.174;2023-02-21T17:59:07;10.10;99.90
48752;DHT22;34544;48.836;9.174;2023-02-21T18:01:33;10.00;99.90
48752;DHT22;34544;48.836;9.174;2023-02-21T18:03:59;9.90;99.90
48752;DHT22;34544;48.836;9.174;2023-02-21T18:06:26;9.90;99.90
48752;DHT22;34544;48.836;9.174;2023-02-21T18:08:52;9.70;99.90
48752;DHT22;34544;48.836;9.174;2023-02-21T18:11:20;9.70;99.90
48752;DHT22;34544;48.836;9.174;2023-02-21T18:13:46;9.60;99.90
48752;DHT22;34544;48.836;9.174;2023-02-21T18:16:12;9.50;99.90
48752;DHT22;34544;48.836;9.174;2023-02-21T18:18:38;9.40;99.90
48752;DHT22;34544;48.836;9.174;2023-02-21T18:21:04;9.40;99.90
48752;DHT22;34544;48.836;9.174;2023-02-21T18:23:31;9.30;99.90
48752;DHT22;34544;48.836;9.174;2023-02-21T18:25:58;9.20;99.90
48752;DHT22;34544;48.836;9.174;2023-02-21T18:28:24;9.10;99.90
48752;DHT22;34544;48.836;9.174;2023-02-21T18:30:50;9.00;99.90
48752;DHT22;34544;48.836;9.174;2023-02-21T18:33:20;8.90;99.90
48752;DHT22;34544;48.836;9.174;2023-02-21T18:35:46;8.90;99.90
48752;DHT22;34544;48.836;9.174;2023-02-21T18:38:12;8.90;99.90
48752;DHT22;34544;48.836;9.174;2023-02-21T18:40:40;8.80;99.90
48752;DHT22;34544;48.836;9.174;2023-02-21T18:43:35;8.80;99.90
48752;DHT22;34544;48.836;9.174;2023-02-21T18:46:01;8.70;99.90
48752;DHT22;34544;48.836;9.174;2023-02-21T18:48:27;8.70;99.90
48752;DHT22;34544;48.836;9.174;2023-02-21T18:50:52;8.60;99.90
48752;DHT22;34544;48.836;9.174;2023-02-21T18:53:19;8.60;99.90
48752;DHT22;34544;48.836;9.174;2023-02-21T18:55:45;8.50;99.90
48752;DHT22;34544;48.836;9.174;2023-02-21T18:58:10;8.40;99.90
48752;DHT22;34544;48.836;9.174;2023-02-21T19:00:37;8.30;99.90
48752;DHT22;34544;48.836;9.174;2023-02-21T19:03:05;8.30;99.90
48752;DHT22;34544;48.836;9.174;2023-02-21T19:05:32;8.30;99.90
48752;DHT22;34544;48.836;9.174;2023-02-21T19:07:58;8.20;99.90
48752;DHT22;34544;48.836;9.174;2023-02-21T19:10:26;8.20;99.90
48752;DHT22;34544;48.836;9.174;2023-02-21T19:12:52;8.10;99.90
48752;DHT22;34544;48.836;9.174;2023-02-21T19:15:19;8.10;99.90
48752;DHT22;34544;48.836;9.174;2023-02-21T19:17:45;8.00;99.90
48752;DHT22;34544;48.836;9.174;2023-02-21T19:20:12;8.00;99.90
48752;DHT22;34544;48.836;9.174;2023-02-21T19:22:39;8.00;99.90